createdAt,value
2022-12-14T00:00:38.367Z,1005.97
2022-12-14T00:01:38.296Z,1005.94
2022-12-14T00:02:38.466Z,1005.93
2022-12-14T00:03:38.333Z,1005.91
2022-12-14T00:04:38.286Z,1005.86
2022-12-14T00:05:38.266Z,1005.89
2022-12-14T00:06:38.255Z,1005.79
2022-12-14T00:07:38.236Z,1005.77
2022-12-14T00:08:41.649Z,1005.74
2022-12-14T00:09:38.216Z,1005.81
2022-12-14T00:10:38.223Z,1005.81
2022-12-14T00:11:38.197Z,1005.75
2022-12-14T00:12:38.597Z,1005.69
2022-12-14T00:13:38.173Z,1005.73
2022-12-14T00:14:38.197Z,1005.78
2022-12-14T00:15:38.190Z,1005.76
2022-12-14T00:16:38.158Z,1005.76
2022-12-14T00:17:38.135Z,1005.77
2022-12-14T00:18:38.118Z,1005.72
2022-12-14T00:19:38.141Z,1005.77
2022-12-14T00:20:38.111Z,1005.75
2022-12-14T00:21:38.100Z,1005.70
2022-12-14T00:22:38.081Z,1005.68
2022-12-14T00:23:39.260Z,1005.69
2022-12-14T00:24:38.071Z,1005.66
2022-12-14T00:25:38.078Z,1005.74
2022-12-14T00:26:38.042Z,1005.68
2022-12-14T00:27:38.031Z,1005.62
2022-12-14T00:28:38.028Z,1005.62
2022-12-14T00:29:38.032Z,1005.58
2022-12-14T00:30:38.035Z,1005.56
2022-12-14T00:31:38.128Z,1005.61
2022-12-14T00:32:37.988Z,1005.59
2022-12-14T00:33:37.971Z,1005.58
2022-12-14T00:34:37.980Z,1005.60
2022-12-14T00:35:37.975Z,1005.64
2022-12-14T00:36:37.951Z,1005.61
2022-12-14T00:37:37.953Z,1005.61
2022-12-14T00:38:37.927Z,1005.62
2022-12-14T00:39:37.927Z,1005.63
2022-12-14T00:40:37.910Z,1005.59
2022-12-14T00:41:37.905Z,1005.59
2022-12-14T00:42:37.893Z,1005.60
2022-12-14T00:43:37.922Z,1005.55
2022-12-14T00:44:37.868Z,1005.59
2022-12-14T00:45:37.862Z,1005.57
2022-12-14T00:46:37.916Z,1005.56
2022-12-14T00:47:40.829Z,1005.53
2022-12-14T00:48:37.838Z,1005.54
2022-12-14T00:49:37.843Z,1005.59
2022-12-14T00:50:37.811Z,1005.53
2022-12-14T00:51:37.810Z,1005.52
2022-12-14T00:52:37.796Z,1005.55
2022-12-14T00:53:37.794Z,1005.54
2022-12-14T00:54:37.763Z,1005.57
2022-12-14T00:55:37.771Z,1005.51
2022-12-14T00:56:37.792Z,1005.55
2022-12-14T00:57:37.740Z,1005.54
2022-12-14T00:58:37.726Z,1005.57
2022-12-14T00:59:37.719Z,1005.49
2022-12-14T01:00:37.729Z,1005.50
2022-12-14T01:01:37.799Z,1005.50
2022-12-14T01:02:37.745Z,1005.54
2022-12-14T01:03:37.724Z,1005.43
2022-12-14T01:04:37.667Z,1005.45
2022-12-14T01:05:37.657Z,1005.45
2022-12-14T01:06:37.669Z,1005.49
2022-12-14T01:07:37.651Z,1005.51
2022-12-14T01:08:37.649Z,1005.46
2022-12-14T01:09:37.626Z,1005.41
2022-12-14T01:10:37.619Z,1005.47
2022-12-14T01:11:37.608Z,1005.47
2022-12-14T01:12:37.609Z,1005.45
2022-12-14T01:13:37.580Z,1005.42
2022-12-14T01:14:37.628Z,1005.31
2022-12-14T01:15:37.627Z,1005.33
2022-12-14T01:16:37.571Z,1005.33
2022-12-14T01:17:37.551Z,1005.34
2022-12-14T01:18:37.546Z,1005.35
2022-12-14T01:19:37.538Z,1005.41
2022-12-14T01:20:37.515Z,1005.43
2022-12-14T01:21:37.505Z,1005.38
2022-12-14T01:22:37.512Z,1005.42
2022-12-14T01:23:37.494Z,1005.41
2022-12-14T01:24:37.482Z,1005.39
2022-12-14T01:25:37.464Z,1005.37
2022-12-14T01:26:37.467Z,1005.36
2022-12-14T01:27:37.447Z,1005.32
2022-12-14T01:28:37.464Z,1005.28
2022-12-14T01:29:37.430Z,1005.34
2022-12-14T01:30:37.423Z,1005.35
2022-12-14T01:31:37.455Z,1005.44
2022-12-14T01:32:37.403Z,1005.40
2022-12-14T01:33:37.417Z,1005.36
2022-12-14T01:34:37.394Z,1005.42
2022-12-14T01:35:37.372Z,1005.31
2022-12-14T01:36:37.352Z,1005.51
2022-12-14T01:37:37.348Z,1005.40
2022-12-14T01:38:37.350Z,1005.40
2022-12-14T01:39:37.332Z,1005.39
2022-12-14T01:40:37.316Z,1005.36
2022-12-14T01:41:37.321Z,1005.33
2022-12-14T01:42:37.302Z,1005.30
2022-12-14T01:43:37.298Z,1005.29
2022-12-14T01:44:37.279Z,1005.32
2022-12-14T01:45:37.267Z,1005.36
2022-12-14T01:46:37.333Z,1005.37
2022-12-14T01:47:37.248Z,1005.30
2022-12-14T01:48:37.243Z,1005.28
2022-12-14T01:49:37.236Z,1005.30
2022-12-14T01:50:37.245Z,1005.20
2022-12-14T01:51:37.210Z,1005.28
2022-12-14T01:52:37.228Z,1005.26
2022-12-14T01:53:37.203Z,1005.27
2022-12-14T01:54:37.175Z,1005.30
2022-12-14T01:55:37.187Z,1005.14
2022-12-14T01:56:37.152Z,1005.17
2022-12-14T01:57:37.182Z,1005.15
2022-12-14T01:58:37.147Z,1005.21
2022-12-14T01:59:37.145Z,1005.28
2022-12-14T02:00:37.118Z,1005.15
2022-12-14T02:01:37.239Z,1005.24
2022-12-14T02:02:37.216Z,1005.20
2022-12-14T02:03:37.158Z,1005.28
2022-12-14T02:04:37.088Z,1005.27
2022-12-14T02:05:37.067Z,1005.19
2022-12-14T02:06:37.075Z,1005.28
2022-12-14T02:07:37.066Z,1005.19
2022-12-14T02:08:37.042Z,1005.22
2022-12-14T02:09:37.028Z,1005.23
2022-12-14T02:10:37.021Z,1005.20
2022-12-14T02:11:37.012Z,1005.16
2022-12-14T02:12:37.012Z,1005.15
2022-12-14T02:13:36.988Z,1005.14
2022-12-14T02:14:36.999Z,1005.16
2022-12-14T02:15:44.676Z,1005.10
2022-12-14T02:16:37.033Z,1005.14
2022-12-14T02:17:36.953Z,1005.12
2022-12-14T02:18:36.975Z,1005.17
2022-12-14T02:19:36.942Z,1005.13
2022-12-14T02:20:36.929Z,1005.14
2022-12-14T02:21:36.925Z,1005.13
2022-12-14T02:22:36.921Z,1005.12
2022-12-14T02:23:36.905Z,1005.12
2022-12-14T02:24:36.897Z,1005.14
2022-12-14T02:25:36.877Z,1005.11
2022-12-14T02:26:36.861Z,1005.09
2022-12-14T02:27:36.863Z,1005.14
2022-12-14T02:28:36.843Z,1005.09
2022-12-14T02:29:36.877Z,1005.10
2022-12-14T02:30:36.847Z,1005.11
2022-12-14T02:31:36.910Z,1005.13
2022-12-14T02:32:36.810Z,1005.09
2022-12-14T02:33:36.800Z,1005.08
2022-12-14T02:34:36.784Z,1005.08
2022-12-14T02:35:36.798Z,1005.09
2022-12-14T02:36:36.777Z,1005.08
2022-12-14T02:37:36.758Z,1005.10
2022-12-14T02:38:36.771Z,1005.01
2022-12-14T02:39:36.730Z,1005.00
2022-12-14T02:40:36.731Z,1005.01
2022-12-14T02:41:36.748Z,1005.02
2022-12-14T02:42:36.726Z,1004.96
2022-12-14T02:43:36.700Z,1005.01
2022-12-14T02:44:36.691Z,1004.92
2022-12-14T02:45:36.678Z,1004.94
2022-12-14T02:46:36.735Z,1004.96
2022-12-14T02:47:36.686Z,1004.95
2022-12-14T02:48:36.642Z,1004.99
2022-12-14T02:49:36.652Z,1005.00
2022-12-14T02:50:36.625Z,1004.97
2022-12-14T02:51:36.619Z,1004.99
2022-12-14T02:52:36.608Z,1004.99
2022-12-14T02:53:36.627Z,1004.99
2022-12-14T02:54:36.611Z,1004.93
2022-12-14T02:55:36.586Z,1004.92
2022-12-14T02:56:36.567Z,1004.91
2022-12-14T02:57:36.564Z,1004.90
2022-12-14T02:58:36.582Z,1004.96
2022-12-14T02:59:36.540Z,1004.85
2022-12-14T03:00:36.595Z,1004.94
2022-12-14T03:01:36.831Z,1004.91
2022-12-14T03:02:36.627Z,1004.86
2022-12-14T03:03:36.518Z,1004.90
2022-12-14T03:04:36.487Z,1004.90
2022-12-14T03:05:36.482Z,1004.87
2022-12-14T03:06:36.469Z,1004.84
2022-12-14T03:07:36.464Z,1004.88
2022-12-14T03:08:36.465Z,1004.83
2022-12-14T03:09:36.443Z,1004.81
2022-12-14T03:10:36.455Z,1004.87
2022-12-14T03:11:36.415Z,1004.79
2022-12-14T03:12:36.419Z,1004.83
2022-12-14T03:13:36.422Z,1004.83
2022-12-14T03:14:36.402Z,1004.80
2022-12-14T03:15:36.377Z,1004.77
2022-12-14T03:16:36.446Z,1004.84
2022-12-14T03:17:36.362Z,1004.80
2022-12-14T03:18:36.358Z,1004.76
2022-12-14T03:19:36.357Z,1004.73
2022-12-14T03:20:36.327Z,1004.74
2022-12-14T03:21:36.319Z,1004.74
2022-12-14T03:22:36.328Z,1004.69
2022-12-14T03:23:36.308Z,1004.71
2022-12-14T03:24:36.309Z,1004.71
2022-12-14T03:25:36.284Z,1004.63
2022-12-14T03:26:36.300Z,1004.65
2022-12-14T03:27:36.268Z,1004.63
2022-12-14T03:28:36.267Z,1004.57
2022-12-14T03:29:36.255Z,1004.57
2022-12-14T03:30:58.841Z,1004.57
2022-12-14T03:31:37.230Z,1004.58
2022-12-14T03:32:36.227Z,1004.55
2022-12-14T03:33:36.211Z,1004.58
2022-12-14T03:34:36.207Z,1004.60
2022-12-14T03:35:36.193Z,1004.61
2022-12-14T03:36:36.193Z,1004.53
2022-12-14T03:37:36.166Z,1004.60
2022-12-14T03:38:36.165Z,1004.57
2022-12-14T03:39:36.138Z,1004.52
2022-12-14T03:40:36.151Z,1004.56
2022-12-14T03:41:36.142Z,1004.56
2022-12-14T03:42:36.148Z,1004.53
2022-12-14T03:43:36.112Z,1004.55
2022-12-14T03:44:40.319Z,1004.53
2022-12-14T03:45:37.164Z,1004.45
2022-12-14T03:46:36.086Z,1004.49
2022-12-14T03:47:36.077Z,1004.53
2022-12-14T03:48:36.066Z,1004.52
2022-12-14T03:49:36.050Z,1004.52
2022-12-14T03:50:36.037Z,1004.56
2022-12-14T03:51:36.030Z,1004.52
2022-12-14T03:52:36.046Z,1004.53
2022-12-14T03:53:36.003Z,1004.47
2022-12-14T03:54:43.562Z,1004.47
2022-12-14T03:55:36.012Z,1004.40
2022-12-14T03:56:35.972Z,1004.44
2022-12-14T03:57:35.980Z,1004.42
2022-12-14T03:58:35.992Z,1004.38
2022-12-14T03:59:35.944Z,1004.37
2022-12-14T04:00:36.109Z,1004.39
2022-12-14T04:01:36.062Z,1004.41
2022-12-14T04:02:40.737Z,1004.40
2022-12-14T04:03:36.918Z,1004.36
2022-12-14T04:04:35.903Z,1004.35
2022-12-14T04:05:35.920Z,1004.31
2022-12-14T04:06:35.882Z,1004.32
2022-12-14T04:07:35.877Z,1004.32
2022-12-14T04:08:35.872Z,1004.34
2022-12-14T04:09:35.865Z,1004.38
2022-12-14T04:10:35.859Z,1004.33
2022-12-14T04:11:35.850Z,1004.36
2022-12-14T04:12:35.827Z,1004.29
2022-12-14T04:13:35.813Z,1004.26
2022-12-14T04:14:35.820Z,1004.31
2022-12-14T04:15:35.793Z,1004.23
2022-12-14T04:16:35.837Z,1004.25
2022-12-14T04:17:35.785Z,1004.26
2022-12-14T04:18:35.759Z,1004.22
2022-12-14T04:19:35.776Z,1004.22
2022-12-14T04:20:35.746Z,1004.21
2022-12-14T04:21:35.732Z,1004.18
2022-12-14T04:22:35.735Z,1004.18
2022-12-14T04:23:35.738Z,1004.19
2022-12-14T04:24:35.705Z,1004.18
2022-12-14T04:25:35.713Z,1004.18
2022-12-14T04:26:35.682Z,1004.14
2022-12-14T04:27:35.668Z,1004.17
2022-12-14T04:28:35.662Z,1004.13
2022-12-14T04:29:35.657Z,1004.16
2022-12-14T04:30:35.686Z,1004.16
2022-12-14T04:31:35.730Z,1004.12
2022-12-14T04:32:35.734Z,1004.12
2022-12-14T04:33:35.607Z,1004.16
2022-12-14T04:34:35.611Z,1004.11
2022-12-14T04:35:35.623Z,1004.11
2022-12-14T04:36:35.599Z,1004.08
2022-12-14T04:37:35.574Z,1004.03
2022-12-14T04:38:35.568Z,1004.11
2022-12-14T04:39:35.550Z,1004.03
2022-12-14T04:40:35.548Z,1003.98
2022-12-14T04:41:35.577Z,1003.98
2022-12-14T04:42:35.531Z,1003.96
2022-12-14T04:43:35.534Z,1003.97
2022-12-14T04:44:35.510Z,1003.95
2022-12-14T04:45:35.575Z,1003.93
2022-12-14T04:46:40.312Z,1003.94
2022-12-14T04:47:36.485Z,1003.91
2022-12-14T04:48:35.496Z,1003.91
2022-12-14T04:49:35.452Z,1003.96
2022-12-14T04:50:35.451Z,1003.85
2022-12-14T04:51:35.438Z,1003.89
2022-12-14T04:52:35.445Z,1003.95
2022-12-14T04:53:35.415Z,1003.89
2022-12-14T04:54:35.416Z,1003.87
2022-12-14T04:55:35.403Z,1003.90
2022-12-14T04:56:35.390Z,1003.87
2022-12-14T04:57:35.378Z,1003.88
2022-12-14T04:58:35.382Z,1003.85
2022-12-14T04:59:35.352Z,1003.83
2022-12-14T05:00:35.341Z,1003.84
2022-12-14T05:01:35.562Z,1003.82
2022-12-14T05:02:35.481Z,1003.85
2022-12-14T05:03:35.330Z,1003.76
2022-12-14T05:04:35.328Z,1003.79
2022-12-14T05:05:35.305Z,1003.83
2022-12-14T05:06:35.295Z,1003.78
2022-12-14T05:07:35.286Z,1003.77
2022-12-14T05:08:35.268Z,1003.75
2022-12-14T05:09:35.282Z,1003.75
2022-12-14T05:10:35.257Z,1003.73
2022-12-14T05:11:53.743Z,1003.73
2022-12-14T05:12:36.227Z,1003.70
2022-12-14T05:13:35.241Z,1003.71
2022-12-14T05:14:35.224Z,1003.71
2022-12-14T05:15:35.211Z,1003.71
2022-12-14T05:16:35.273Z,1003.65
2022-12-14T05:17:35.184Z,1003.75
2022-12-14T05:18:35.192Z,1003.71
2022-12-14T05:19:35.236Z,1003.68
2022-12-14T05:20:35.165Z,1003.68
2022-12-14T05:21:35.160Z,1003.67
2022-12-14T05:22:35.138Z,1003.64
2022-12-14T05:23:35.120Z,1003.66
2022-12-14T05:24:35.116Z,1003.65
2022-12-14T05:25:35.122Z,1003.61
2022-12-14T05:26:35.108Z,1003.64
2022-12-14T05:27:35.100Z,1003.62
2022-12-14T05:28:35.070Z,1003.61
2022-12-14T05:29:35.077Z,1003.64
2022-12-14T05:30:35.103Z,1003.59
2022-12-14T05:31:35.045Z,1003.57
2022-12-14T05:32:35.056Z,1003.56
2022-12-14T05:33:43.587Z,1003.57
2022-12-14T05:34:35.025Z,1003.53
2022-12-14T05:35:35.030Z,1003.51
2022-12-14T05:36:35.027Z,1003.52
2022-12-14T05:37:34.978Z,1003.50
2022-12-14T05:38:34.975Z,1003.49
2022-12-14T05:39:34.978Z,1003.44
2022-12-14T05:40:34.956Z,1003.41
2022-12-14T05:41:34.961Z,1003.43
2022-12-14T05:42:38.248Z,1003.42
2022-12-14T05:43:35.927Z,1003.36
2022-12-14T05:44:34.950Z,1003.37
2022-12-14T05:45:34.912Z,1003.35
2022-12-14T05:46:34.914Z,1003.28
2022-12-14T05:47:34.899Z,1003.31
2022-12-14T05:48:34.869Z,1003.30
2022-12-14T05:49:34.883Z,1003.25
2022-12-14T05:50:34.874Z,1003.24
2022-12-14T05:51:34.842Z,1003.24
2022-12-14T05:52:34.841Z,1003.27
2022-12-14T05:53:34.846Z,1003.18
2022-12-14T05:54:34.827Z,1003.21
2022-12-14T05:55:34.802Z,1003.14
2022-12-14T05:56:34.808Z,1003.14
2022-12-14T05:57:38.034Z,1003.10
2022-12-14T05:58:39.127Z,1003.10
2022-12-14T06:00:35.773Z,1003.13
2022-12-14T06:01:34.829Z,1003.09
2022-12-14T06:02:34.796Z,1003.08
2022-12-14T06:03:34.748Z,1003.14
2022-12-14T06:04:34.788Z,1003.11
2022-12-14T06:05:34.729Z,1003.09
2022-12-14T06:06:34.703Z,1003.13
2022-12-14T06:07:34.696Z,1003.16
2022-12-14T06:08:34.687Z,1003.13
2022-12-14T06:09:34.688Z,1003.15
2022-12-14T06:10:34.658Z,1003.17
2022-12-14T06:11:34.677Z,1003.16
2022-12-14T06:12:34.643Z,1003.15
2022-12-14T06:13:34.715Z,1003.15
2022-12-14T06:14:34.716Z,1003.15
2022-12-14T06:15:34.754Z,1003.13
2022-12-14T06:16:34.603Z,1003.15
2022-12-14T06:17:34.607Z,1003.17
2022-12-14T06:18:34.589Z,1003.17
2022-12-14T06:19:34.587Z,1003.16
2022-12-14T06:20:34.575Z,1003.11
2022-12-14T06:21:34.576Z,1003.15
2022-12-14T06:22:34.554Z,1003.12
2022-12-14T06:23:34.541Z,1003.10
2022-12-14T06:24:34.531Z,1003.09
2022-12-14T06:25:34.539Z,1003.08
2022-12-14T06:26:34.515Z,1003.06
2022-12-14T06:27:34.505Z,1003.12
2022-12-14T06:28:34.485Z,1003.10
2022-12-14T06:29:34.493Z,1002.99
2022-12-14T06:30:34.468Z,1003.01
2022-12-14T06:31:34.521Z,1003.03
2022-12-14T06:32:34.441Z,1003.04
2022-12-14T06:33:34.438Z,1003.03
2022-12-14T06:34:39.018Z,1002.98
2022-12-14T06:35:35.412Z,1003.06
2022-12-14T06:36:34.421Z,1003.05
2022-12-14T06:37:34.421Z,1003.03
2022-12-14T06:38:34.384Z,1003.02
2022-12-14T06:39:34.381Z,1003.00
2022-12-14T06:40:34.381Z,1002.99
2022-12-14T06:41:34.353Z,1003.05
2022-12-14T06:42:34.387Z,1003.00
2022-12-14T06:43:34.339Z,1002.99
2022-12-14T06:44:34.336Z,1003.03
2022-12-14T06:45:34.339Z,1003.02
2022-12-14T06:46:34.403Z,1003.02
2022-12-14T06:47:34.293Z,1003.01
2022-12-14T06:48:34.319Z,1003.03
2022-12-14T06:49:34.280Z,1002.98
2022-12-14T06:50:34.265Z,1002.94
2022-12-14T06:51:34.258Z,1002.96
2022-12-14T06:52:34.266Z,1002.91
2022-12-14T06:53:34.257Z,1002.94
2022-12-14T06:54:34.255Z,1002.96
2022-12-14T06:55:34.225Z,1002.90
2022-12-14T06:56:34.218Z,1002.87
2022-12-14T06:57:34.200Z,1002.89
2022-12-14T06:58:34.226Z,1002.88
2022-12-14T06:59:34.203Z,1002.77
2022-12-14T07:00:34.170Z,1002.86
2022-12-14T07:01:34.222Z,1002.76
2022-12-14T07:02:34.412Z,1002.85
2022-12-14T07:03:34.222Z,1002.83
2022-12-14T07:04:34.183Z,1002.82
2022-12-14T07:05:34.123Z,1002.81
2022-12-14T07:06:34.124Z,1002.84
2022-12-14T07:07:34.107Z,1002.84
2022-12-14T07:08:34.099Z,1002.84
2022-12-14T07:09:34.118Z,1002.82
2022-12-14T07:10:34.116Z,1002.86
2022-12-14T07:11:34.089Z,1002.85
2022-12-14T07:12:41.605Z,1002.84
2022-12-14T07:13:34.045Z,1002.77
2022-12-14T07:14:34.034Z,1002.80
2022-12-14T07:15:34.085Z,1002.77
2022-12-14T07:16:34.021Z,1002.76
2022-12-14T07:17:34.009Z,1002.81
2022-12-14T07:18:34.022Z,1002.74
2022-12-14T07:19:33.989Z,1002.75
2022-12-14T07:20:33.965Z,1002.70
2022-12-14T07:21:34.018Z,1002.71
2022-12-14T07:22:33.971Z,1002.75
2022-12-14T07:23:34.502Z,1002.69
2022-12-14T07:24:33.957Z,1002.65
2022-12-14T07:25:33.996Z,1002.61
2022-12-14T07:26:33.913Z,1002.62
2022-12-14T07:27:33.906Z,1002.58
2022-12-14T07:28:33.912Z,1002.62
2022-12-14T07:29:35.020Z,1002.61
2022-12-14T07:30:33.876Z,1002.65
2022-12-14T07:31:33.918Z,1002.58
2022-12-14T07:32:33.858Z,1002.59
2022-12-14T07:33:33.839Z,1002.50
2022-12-14T07:34:33.830Z,1002.52
2022-12-14T07:35:33.846Z,1002.48
2022-12-14T07:36:33.835Z,1002.51
2022-12-14T07:37:33.804Z,1002.48
2022-12-14T07:38:33.799Z,1002.41
2022-12-14T07:39:33.788Z,1002.40
2022-12-14T07:40:33.772Z,1002.37
2022-12-14T07:41:33.799Z,1002.39
2022-12-14T07:42:33.791Z,1002.40
2022-12-14T07:43:33.744Z,1002.36
2022-12-14T07:44:33.747Z,1002.43
2022-12-14T07:45:33.724Z,1002.44
2022-12-14T07:46:33.917Z,1002.40
2022-12-14T07:47:33.706Z,1002.43
2022-12-14T07:48:33.729Z,1002.41
2022-12-14T07:49:33.689Z,1002.45
2022-12-14T07:50:33.680Z,1002.43
2022-12-14T07:51:33.669Z,1002.42
2022-12-14T07:52:37.401Z,1002.43
2022-12-14T07:53:33.653Z,1002.47
2022-12-14T07:54:33.656Z,1002.39
2022-12-14T07:55:33.634Z,1002.46
2022-12-14T07:56:33.643Z,1002.40
2022-12-14T07:57:33.648Z,1002.46
2022-12-14T07:58:33.601Z,1002.46
2022-12-14T07:59:33.592Z,1002.43
2022-12-14T08:00:33.629Z,1002.40
2022-12-14T08:01:33.667Z,1002.46
2022-12-14T08:02:33.683Z,1002.40
2022-12-14T08:03:33.559Z,1002.44
2022-12-14T08:04:33.618Z,1002.41
2022-12-14T08:05:33.543Z,1002.46
2022-12-14T08:06:33.521Z,1002.46
2022-12-14T08:07:33.511Z,1002.48
2022-12-14T08:08:33.496Z,1002.44
2022-12-14T08:09:33.487Z,1002.46
2022-12-14T08:10:40.000Z,1002.45
2022-12-14T08:11:34.466Z,1002.49
2022-12-14T08:12:33.457Z,1002.47
2022-12-14T08:13:33.477Z,1002.44
2022-12-14T08:14:33.447Z,1002.46
2022-12-14T08:15:33.434Z,1002.42
2022-12-14T08:16:33.547Z,1002.41
2022-12-14T08:17:33.415Z,1002.36
2022-12-14T08:18:33.401Z,1002.34
2022-12-14T08:19:33.396Z,1002.37
2022-12-14T08:20:33.379Z,1002.37
2022-12-14T08:21:33.382Z,1002.38
2022-12-14T08:22:33.379Z,1002.34
2022-12-14T08:23:33.993Z,1002.31
2022-12-14T08:24:33.340Z,1002.24
2022-12-14T08:25:33.338Z,1002.31
2022-12-14T08:26:35.782Z,1002.28
2022-12-14T08:27:33.317Z,1002.27
2022-12-14T08:28:33.337Z,1002.31
2022-12-14T08:29:33.317Z,1002.27
2022-12-14T08:30:33.276Z,1002.26
2022-12-14T08:31:33.369Z,1002.27
2022-12-14T08:32:34.626Z,1002.21
2022-12-14T08:33:33.345Z,1002.23
2022-12-14T08:34:33.237Z,1002.22
2022-12-14T08:35:33.248Z,1002.23
2022-12-14T08:36:33.236Z,1002.22
2022-12-14T08:37:33.233Z,1002.21
2022-12-14T08:38:33.198Z,1002.22
2022-12-14T08:39:33.190Z,1002.29
2022-12-14T08:40:33.177Z,1002.22
2022-12-14T08:41:33.181Z,1002.29
2022-12-14T08:42:33.178Z,1002.31
2022-12-14T08:43:33.700Z,1002.28
2022-12-14T08:44:33.151Z,1002.29
2022-12-14T08:45:33.147Z,1002.22
2022-12-14T08:46:33.238Z,1002.15
2022-12-14T08:47:33.123Z,1002.14
2022-12-14T08:48:33.131Z,1002.14
2022-12-14T08:49:33.096Z,1002.15
2022-12-14T08:50:33.093Z,1002.16
2022-12-14T08:51:33.076Z,1002.09
2022-12-14T08:52:33.061Z,1002.12
2022-12-14T08:53:33.486Z,1002.12
2022-12-14T08:54:33.048Z,1002.11
2022-12-14T08:55:38.311Z,1002.14
2022-12-14T08:56:34.018Z,1002.12
2022-12-14T08:57:33.013Z,1002.14
2022-12-14T08:58:33.007Z,1002.14
2022-12-14T09:00:00.258Z,1002.12
2022-12-14T09:00:34.068Z,1002.09
2022-12-14T09:01:34.676Z,1002.07
2022-12-14T09:02:33.157Z,1002.03
2022-12-14T09:03:33.466Z,1002.04
2022-12-14T09:04:32.948Z,1002.07
2022-12-14T09:05:32.932Z,1002.05
2022-12-14T09:06:32.923Z,1002.07
2022-12-14T09:07:32.922Z,1002.07
2022-12-14T09:08:32.907Z,1002.14
2022-12-14T09:09:32.923Z,1002.14
2022-12-14T09:10:32.884Z,1002.21
2022-12-14T09:11:32.871Z,1002.17
2022-12-14T09:12:32.870Z,1002.17
2022-12-14T09:13:33.413Z,1002.18
2022-12-14T09:14:32.837Z,1002.14
2022-12-14T09:15:32.849Z,1002.12
2022-12-14T09:16:32.914Z,1002.13
2022-12-14T09:17:32.811Z,1002.12
2022-12-14T09:18:33.454Z,1002.13
2022-12-14T09:19:32.802Z,1002.10
2022-12-14T09:20:32.792Z,1002.11
2022-12-14T09:21:32.828Z,1002.06
2022-12-14T09:22:32.765Z,1002.06
2022-12-14T09:23:33.290Z,1002.08
2022-12-14T09:24:32.748Z,1002.06
2022-12-14T09:25:32.738Z,1002.08
2022-12-14T09:26:32.722Z,1002.00
2022-12-14T09:27:32.705Z,1002.02
2022-12-14T09:28:32.707Z,1002.03
2022-12-14T09:29:32.693Z,1002.04
2022-12-14T09:30:32.695Z,1001.92
2022-12-14T09:31:32.728Z,1001.95
2022-12-14T09:32:32.675Z,1001.96
2022-12-14T09:33:33.068Z,1001.93
2022-12-14T09:34:32.634Z,1001.96
2022-12-14T09:35:32.633Z,1001.91
2022-12-14T09:36:32.646Z,1001.86
2022-12-14T09:37:32.621Z,1001.95
2022-12-14T09:38:32.600Z,1001.86
2022-12-14T09:39:32.591Z,1001.82
2022-12-14T09:40:32.579Z,1001.83
2022-12-14T09:41:32.585Z,1001.84
2022-12-14T09:42:32.605Z,1001.85
2022-12-14T09:43:37.157Z,1001.78
2022-12-14T09:44:33.539Z,1001.79
2022-12-14T09:45:32.673Z,1001.75
2022-12-14T09:46:32.521Z,1001.75
2022-12-14T09:47:32.522Z,1001.74
2022-12-14T09:48:32.854Z,1001.67
2022-12-14T09:49:32.497Z,1001.67
2022-12-14T09:50:32.480Z,1001.59
2022-12-14T09:51:32.541Z,1001.64
2022-12-14T09:52:32.456Z,1001.65
2022-12-14T09:53:32.792Z,1001.62
2022-12-14T09:54:32.458Z,1001.68
2022-12-14T09:55:32.431Z,1001.65
2022-12-14T09:56:32.431Z,1001.62
2022-12-14T09:57:32.420Z,1001.61
2022-12-14T09:58:32.806Z,1001.63
2022-12-14T09:59:32.385Z,1001.66
2022-12-14T10:00:32.393Z,1001.61
2022-12-14T10:01:32.537Z,1001.51
2022-12-14T10:02:33.215Z,1001.58
2022-12-14T10:03:32.961Z,1001.58
2022-12-14T10:04:32.382Z,1001.53
2022-12-14T10:05:32.332Z,1001.53
2022-12-14T10:06:32.350Z,1001.51
2022-12-14T10:07:34.836Z,1001.45
2022-12-14T10:08:32.974Z,1001.50
2022-12-14T10:09:32.314Z,1001.51
2022-12-14T10:10:32.281Z,1001.53
2022-12-14T10:11:32.281Z,1001.47
2022-12-14T10:12:34.426Z,1001.52
2022-12-14T10:13:32.618Z,1001.48
2022-12-14T10:14:32.268Z,1001.38
2022-12-14T10:15:32.236Z,1001.43
2022-12-14T10:16:32.300Z,1001.39
2022-12-14T10:17:32.282Z,1001.40
2022-12-14T10:18:58.105Z,1001.33
2022-12-14T10:19:33.195Z,1001.30
2022-12-14T10:20:32.215Z,1001.34
2022-12-14T10:21:32.167Z,1001.41
2022-12-14T10:22:32.166Z,1001.31
2022-12-14T10:23:32.149Z,1001.44
2022-12-14T10:24:32.148Z,1001.28
2022-12-14T10:25:32.146Z,1001.37
2022-12-14T10:26:32.122Z,1001.27
2022-12-14T10:27:53.885Z,1001.29
2022-12-14T10:28:33.413Z,1001.25
2022-12-14T10:29:32.087Z,1001.30
2022-12-14T10:30:32.085Z,1001.28
2022-12-14T10:31:32.144Z,1001.21
2022-12-14T10:32:32.057Z,1001.29
2022-12-14T10:33:32.052Z,1001.19
2022-12-14T10:34:32.048Z,1001.23
2022-12-14T10:35:32.034Z,1001.21
2022-12-14T10:36:32.014Z,1001.20
2022-12-14T10:37:32.030Z,1001.20
2022-12-14T10:38:32.658Z,1001.17
2022-12-14T10:39:31.998Z,1001.14
2022-12-14T10:40:34.591Z,1001.11
2022-12-14T10:41:31.970Z,1001.09
2022-12-14T10:42:31.955Z,1001.09
2022-12-14T10:43:31.968Z,1001.05
2022-12-14T10:44:31.939Z,1001.09
2022-12-14T10:45:40.340Z,1001.08
2022-12-14T10:46:33.018Z,1001.09
2022-12-14T10:47:31.941Z,1001.07
2022-12-14T10:48:32.305Z,1001.09
2022-12-14T10:49:31.893Z,1001.01
2022-12-14T10:50:31.885Z,1001.08
2022-12-14T10:51:31.874Z,1001.09
2022-12-14T10:52:31.857Z,1001.03
2022-12-14T10:53:37.109Z,1001.02
2022-12-14T10:54:32.846Z,1001.01
2022-12-14T10:55:31.843Z,1001.00
2022-12-14T10:56:31.894Z,1001.01
2022-12-14T10:57:31.803Z,1001.00
2022-12-14T10:58:32.148Z,1000.91
2022-12-14T10:59:38.938Z,1000.89
2022-12-14T11:00:32.779Z,1000.83
2022-12-14T11:01:31.944Z,1000.91
2022-12-14T11:02:31.958Z,1000.90
2022-12-14T11:03:31.827Z,1000.87
2022-12-14T11:04:31.732Z,1000.86
2022-12-14T11:05:36.424Z,1000.85
2022-12-14T11:06:32.719Z,1000.81
2022-12-14T11:07:31.728Z,1000.75
2022-12-14T11:08:32.019Z,1000.77
2022-12-14T11:09:31.693Z,1000.77
2022-12-14T11:10:31.671Z,1000.80
2022-12-14T11:11:31.725Z,1000.72
2022-12-14T11:12:31.671Z,1000.76
2022-12-14T11:13:31.665Z,1000.70
2022-12-14T11:14:31.633Z,1000.76
2022-12-14T11:15:31.628Z,1000.68
2022-12-14T11:16:36.044Z,1000.70
2022-12-14T11:17:32.837Z,1000.70
2022-12-14T11:18:32.361Z,1000.73
2022-12-14T11:19:31.603Z,1000.72
2022-12-14T11:20:31.588Z,1000.71
2022-12-14T11:21:31.566Z,1000.66
2022-12-14T11:22:31.554Z,1000.66
2022-12-14T11:23:31.550Z,1000.61
2022-12-14T11:24:31.537Z,1000.59
2022-12-14T11:25:31.546Z,1000.66
2022-12-14T11:26:31.510Z,1000.69
2022-12-14T11:27:31.511Z,1000.65
2022-12-14T11:28:37.098Z,1000.65
2022-12-14T11:29:32.485Z,1000.60
2022-12-14T11:30:31.541Z,1000.65
2022-12-14T11:31:31.477Z,1000.59
2022-12-14T11:32:31.454Z,1000.57
2022-12-14T11:33:31.441Z,1000.60
2022-12-14T11:34:31.439Z,1000.58
2022-12-14T11:35:31.424Z,1000.59
2022-12-14T11:36:31.418Z,1000.61
2022-12-14T11:37:31.431Z,1000.54
2022-12-14T11:38:31.793Z,1000.60
2022-12-14T11:39:31.386Z,1000.57
2022-12-14T11:40:31.371Z,1000.60
2022-12-14T11:41:31.366Z,1000.56
2022-12-14T11:42:31.359Z,1000.58
2022-12-14T11:43:31.352Z,1000.56
2022-12-14T11:44:31.329Z,1000.66
2022-12-14T11:45:31.320Z,1000.60
2022-12-14T11:46:31.351Z,1000.57
2022-12-14T11:47:31.336Z,1000.59
2022-12-14T11:48:31.761Z,1000.60
2022-12-14T11:49:31.289Z,1000.58
2022-12-14T11:50:31.281Z,1000.55
2022-12-14T11:51:31.257Z,1000.61
2022-12-14T11:52:31.247Z,1000.54
2022-12-14T11:53:31.252Z,1000.55
2022-12-14T11:54:31.231Z,1000.50
2022-12-14T11:55:31.238Z,1000.55
2022-12-14T11:56:31.214Z,1000.45
2022-12-14T11:57:31.208Z,1000.48
2022-12-14T11:58:31.669Z,1000.47
2022-12-14T11:59:31.188Z,1000.50
2022-12-14T12:00:31.165Z,1000.44
2022-12-14T12:01:31.184Z,1000.45
2022-12-14T12:02:31.208Z,1000.33
2022-12-14T12:03:31.221Z,1000.43
2022-12-14T12:04:31.139Z,1000.37
2022-12-14T12:05:31.127Z,1000.39
2022-12-14T12:06:31.115Z,1000.41